Time;durP1;ratioP1;P1;durP2;ratioP2;P2;SDS_P1;SDS_P2;PMS_P1;PMS_P2;Temp;Humidity;BMP_temperature;BMP_pressure;BME280_temperature;BME280_humidity;BME280_pressure;Samples;Min_cycle;Max_cycle;Signal;HPM_P1;HPM_P2
2022/04/25 00:03:56;;;;;;;8.20;5.03;;;;;;;9.28;80.35;99696.62;5242681;56;1132791;-70
2022/04/25 00:09:02;;;;;;;10.30;4.63;;;;;;;9.26;80.66;99700.34;5242828;56;1130739;-71
2022/04/25 00:14:08;;;;;;;8.33;4.53;;;;;;;9.24;81.01;99701.80;5199655;56;1132680;-70
2022/04/25 00:19:13;;;;;;;10.97;6.37;;;;;;;9.20;80.97;99699.53;5165245;57;1134784;-71
2022/04/25 00:24:20;;;;;;;12.23;5.90;;;;;;;9.15;80.97;99703.42;5146965;57;1137013;-72
2022/04/25 00:29:26;;;;;;;8.23;5.73;;;;;;;9.16;81.56;99708.22;5131696;57;1137108;-70
2022/04/25 00:34:32;;;;;;;9.00;5.15;;;;;;;9.12;81.71;99710.75;5131949;57;1134802;-69
2022/04/25 00:39:38;;;;;;;8.60;4.47;;;;;;;9.14;81.67;99714.10;5131625;57;1134794;-69
2022/04/25 00:44:43;;;;;;;8.33;5.40;;;;;;;9.24;81.80;99710.19;5131609;57;1134810;-71
2022/04/25 00:49:49;;;;;;;16.53;6.93;;;;;;;9.20;81.69;99713.56;5131292;57;1135060;-71
2022/04/25 00:54:55;;;;;;;6.57;5.07;;;;;;;9.09;82.18;99704.41;5131486;57;1136937;-70
2022/04/25 01:00:01;;;;;;;9.70;6.30;;;;;;;9.04;82.57;99705.27;5131535;57;1134779;-71
2022/04/25 01:05:08;;;;;;;11.00;6.73;;;;;;;8.98;82.45;99701.37;5131557;57;1134834;-70
2022/04/25 01:10:14;;;;;;;12.57;6.70;;;;;;;8.99;82.63;99702.20;5131458;57;1137004;-70
2022/04/25 01:15:20;;;;;;;9.43;6.07;;;;;;;8.95;82.43;99695.50;5175072;56;1136885;-70
2022/04/25 01:20:25;;;;;;;11.97;6.47;;;;;;;8.86;83.15;99700.25;5186354;56;1135109;-71
2022/04/25 01:30:54;;;;;;;8.38;4.60;;;;;;;8.68;84.01;99695.53;5221805;56;1137158;-71
2022/04/25 01:36:02;;;;;;;8.83;6.07;;;;;;;8.62;85.35;99695.19;5221712;56;1134853;-70
2022/04/25 01:41:08;;;;;;;12.03;5.97;;;;;;;8.52;85.05;99693.80;5221660;56;1134831;-70
2022/04/25 01:46:14;;;;;;;11.33;6.00;;;;;;;8.42;85.38;99699.45;5221616;56;1137001;-70
2022/04/25 01:51:20;;;;;;;11.77;5.93;;;;;;;8.41;85.75;99697.30;5221570;56;1136931;-71
2022/04/25 01:56:43;;;;;;;8.27;5.53;;;;;;;8.34;86.31;99694.83;5222021;56;1136813;-69
2022/04/25 02:01:50;;;;;;;12.67;5.47;;;;;;;8.29;85.69;99700.06;5221534;56;1134867;-72
2022/04/25 02:06:57;;;;;;;15.97;5.80;;;;;;;8.27;85.82;99703.30;5221697;56;1137341;-71
2022/04/25 02:12:04;;;;;;;11.30;6.23;;;;;;;8.29;86.19;99699.59;5212390;56;1137158;-69
2022/04/25 02:17:13;;;;;;;7.47;4.80;;;;;;;8.26;86.43;99701.15;5155840;57;1136946;-71
2022/04/25 02:22:19;;;;;;;15.03;6.00;;;;;;;8.27;86.55;99704.62;5155761;57;1134848;-71
2022/04/25 02:27:25;;;;;;;8.87;5.60;;;;;;;8.21;86.11;99707.77;5135952;57;1136980;-71
2022/04/25 02:32:31;;;;;;;9.80;5.77;;;;;;;8.26;86.25;99710.84;5131537;57;1134814;-72
2022/04/25 02:37:36;;;;;;;13.13;6.60;;;;;;;8.28;86.77;99712.40;5131267;57;1134888;-70
2022/04/25 02:42:42;;;;;;;9.63;6.20;;;;;;;8.30;86.82;99712.28;5131889;57;1136932;-70
2022/04/25 02:47:48;;;;;;;12.47;7.17;;;;;;;8.22;86.52;99706.33;5131985;57;1134815;-70
2022/04/25 02:52:54;;;;;;;9.03;6.03;;;;;;;8.17;86.59;99711.13;5131895;57;1137042;-70
2022/04/25 02:58:00;;;;;;;12.83;6.20;;;;;;;8.12;87.58;99708.84;5131904;57;1135054;-72
2022/04/25 03:03:06;;;;;;;12.83;6.43;;;;;;;8.07;87.08;99707.56;5131824;57;1135073;-71
2022/04/25 03:08:20;;;;;;;9.97;6.73;;;;;;;8.02;87.28;99706.61;5131871;57;1134888;-70
2022/04/25 03:13:26;;;;;;;12.03;6.17;;;;;;;8.01;87.69;99704.09;5154827;57;1132982;-70
2022/04/25 03:18:33;;;;;;;7.20;4.53;;;;;;;8.00;89.34;99710.31;5186758;57;1134848;-71
2022/04/25 03:23:39;;;;;;;15.40;5.70;;;;;;;8.00;89.34;99710.31;5186694;56;1132765;-69
2022/04/25 03:28:46;;;;;;;11.53;6.10;;;;;;;7.88;89.44;99708.19;5237035;56;1134938;-69
2022/04/25 03:33:51;;;;;;;11.23;7.10;;;;;;;7.89;89.74;99711.66;5242827;56;1135051;-71
2022/04/25 03:38:57;;;;;;;7.90;5.23;;;;;;;7.93;89.80;99713.09;5243365;56;1134819;-70
2022/04/25 03:44:03;;;;;;;11.70;6.53;;;;;;;7.96;89.73;99718.09;5242851;56;1132756;-71
2022/04/25 03:49:09;;;;;;;12.27;5.80;;;;;;;7.95;89.86;99719.89;5242851;56;1135136;-70
2022/04/25 03:57:09;;;;;;;14.17;5.27;;;;;;;7.97;89.84;99725.03;5242786;56;1135034;-71
2022/04/25 03:59:23;;;;;;;8.10;4.27;;;;;;;7.97;89.96;99732.45;5238110;56;1134944;-70
2022/04/25 04:04:29;;;;;;;8.23;5.40;;;;;;;7.95;90.72;99740.95;5242729;56;1132793;-69
2022/04/25 04:09:52;;;;;;;11.47;5.20;;;;;;;7.88;90.27;99742.89;5242699;56;1132765;-69
2022/04/25 04:14:54;;;;;;;8.93;6.27;;;;;;;7.94;90.32;99745.05;5186571;56;1132996;-71
2022/04/25 04:20:00;;;;;;;11.60;5.30;;;;;;;7.92;90.25;99748.28;5184946;57;21167;-70
2022/04/25 04:25:12;;;;;;;7.13;4.27;;;;;;;7.82;91.07;99750.78;5165387;57;1132688;-68
2022/04/25 04:30:18;;;;;;;10.07;5.47;;;;;;;7.83;91.37;99759.52;5165427;57;1134810;-72
2022/04/25 04:40:47;;;;;;;9.77;4.70;;;;;;;7.88;91.31;99774.00;5165227;57;1137108;-70
2022/04/25 04:45:53;;;;;;;10.20;5.33;;;;;;;7.99;91.36;99776.62;5165142;57;1132869;-72
2022/04/25 04:51:00;;;;;;;7.47;4.50;;;;;;;8.02;91.11;99782.97;5165108;57;1137130;-69
2022/04/25 04:56:06;;;;;;;18.67;6.50;;;;;;;8.08;91.48;99786.45;5174305;56;1135230;-72
2022/04/25 05:01:12;;;;;;;11.53;6.90;;;;;;;8.14;91.11;99795.64;5216089;56;1136928;-72
2022/04/25 05:06:18;;;;;;;10.87;5.27;;;;;;;8.12;90.97;99801.03;5177496;56;1136912;-69
2022/04/25 05:11:24;;;;;;;11.60;3.87;;;;;;;8.13;90.95;99802.70;5242059;56;1136795;-71
2022/04/25 05:16:30;;;;;;;7.10;4.57;;;;;;;8.16;91.24;99801.63;5181358;56;1136946;-69
2022/04/25 05:21:37;;;;;;;20.67;5.97;;;;;;;8.12;91.62;99804.98;5242526;56;1134834;-71
2022/04/25 05:26:43;;;;;;;13.27;5.00;;;;;;;8.07;91.20;99803.69;5242398;56;1136963;-72
2022/04/25 05:31:52;;;;;;;11.60;5.10;;;;;;;8.13;92.07;99803.19;5242370;56;1137138;-68
2022/04/25 05:36:58;;;;;;;11.07;4.37;;;;;;;8.13;92.07;99803.19;5242428;56;1136916;-72
2022/04/25 05:42:04;;;;;;;8.13;3.73;;;;;;;8.22;91.63;99805.59;5235975;56;1136952;-71
2022/04/25 05:47:09;;;;;;;6.17;4.87;;;;;;;8.29;91.94;99810.71;5201082;56;1134865;-72
2022/04/25 05:52:15;;;;;;;8.90;5.60;;;;;;;8.28;91.87;99816.45;5175354;56;1134822;-73
2022/04/25 05:57:22;;;;;;;8.37;5.10;;;;;;;8.34;91.62;99820.45;5155804;57;1134864;-70
2022/04/25 06:02:28;;;;;;;8.77;5.00;;;;;;;8.42;91.29;99828.56;5166958;56;1134871;-68
2022/04/25 06:07:36;;;;;;;8.07;4.70;;;;;;;8.48;91.44;99826.77;5174280;56;1134917;-69
2022/04/25 06:12:45;;;;;;;5.53;3.90;;;;;;;8.53;91.29;99829.89;5179104;56;1134868;-71
2022/04/25 06:17:51;;;;;;;6.67;4.17;;;;;;;8.59;91.44;99835.13;5242512;56;1134844;-70
2022/04/25 06:23:07;;;;;;;25.73;5.30;;;;;;;8.62;91.05;99833.09;5242484;56;1134809;-69
2022/04/25 06:28:09;;;;;;;8.87;5.27;;;;;;;8.60;91.02;99833.69;5235675;56;1137174;-72
2022/04/25 06:33:15;;;;;;;11.10;4.43;;;;;;;8.67;91.10;99847.23;5220809;56;1134948;-75
2022/04/25 06:38:21;;;;;;;16.47;5.87;;;;;;;8.72;90.92;99847.20;5158030;56;1137098;-75
2022/04/25 06:43:27;;;;;;;33.40;5.17;;;;;;;8.77;91.08;99846.35;5155762;57;1136937;-75
2022/04/25 06:48:35;;;;;;;7.93;4.10;;;;;;;8.80;90.76;99852.70;5155533;57;1137186;-76
2022/04/25 06:53:40;;;;;;;9.18;4.65;;;;;;;8.89;90.83;99851.59;5155686;57;1134855;-74
2022/04/25 06:58:46;;;;;;;10.37;4.47;;;;;;;8.92;90.20;99853.50;5155840;57;1134828;-77
2022/04/25 07:03:52;;;;;;;11.13;4.00;;;;;;;8.89;90.18;99858.18;5155622;57;1136994;-72
2022/04/25 07:08:58;;;;;;;6.63;4.03;;;;;;;8.91;90.15;99859.73;5172680;56;1135106;-73
2022/04/25 07:14:04;;;;;;;4.00;2.93;;;;;;;8.93;90.30;99860.45;5153641;56;1133022;-76
2022/04/25 07:19:10;;;;;;;6.90;4.10;;;;;;;8.94;90.28;99860.81;5138067;56;1132716;-72
2022/04/25 07:29:38;;;;;;;6.40;3.70;;;;;;;9.00;89.67;99872.20;5080027;58;1136935;-70
2022/04/25 07:34:50;;;;;;;15.30;4.50;;;;;;;9.07;89.89;99870.72;5079017;58;1132933;-73
2022/04/25 07:39:53;;;;;;;6.40;4.00;;;;;;;9.15;89.96;99865.67;5131093;57;1134778;-74
2022/04/25 07:44:59;;;;;;;13.17;4.60;;;;;;;9.23;89.43;99872.09;5159363;56;1132745;-74
2022/04/25 07:50:06;;;;;;;22.10;5.83;;;;;;;9.30;89.74;99875.92;5180880;56;1134837;-73
2022/04/25 07:55:12;;;;;;;9.20;4.73;;;;;;;9.36;89.20;99872.27;5150245;56;1134833;-76
2022/04/25 08:00:17;;;;;;;13.67;5.13;;;;;;;9.37;88.68;99881.03;5082626;57;1132737;-72
2022/04/25 08:05:23;;;;;;;8.30;4.57;;;;;;;9.37;88.59;99889.78;5077474;58;1134932;-77
2022/04/25 08:10:29;;;;;;;7.60;3.27;;;;;;;9.35;88.71;99895.67;5079167;57;1132774;-73
2022/04/25 08:20:58;;;;;;;6.75;4.70;;;;;;;9.42;88.83;99905.25;5171638;55;1134909;-74
2022/04/25 08:26:05;;;;;;;9.98;4.58;;;;;;;9.50;88.61;99902.80;5159906;56;1134741;-72
2022/04/25 08:31:10;;;;;;;15.70;4.93;;;;;;;9.55;88.68;99903.27;5185235;56;1134745;-74
2022/04/25 08:36:18;;;;;;;12.63;4.10;;;;;;;9.66;88.87;99897.08;5178121;56;1136798;-77
2022/04/25 08:41:34;;;;;;;42.87;4.20;;;;;;;9.77;88.26;99904.97;5186734;56;1136885;-73
2022/04/25 08:46:42;;;;;;;9.57;4.00;;;;;;;9.84;87.58;99901.66;5067301;57;1136910;-77
2022/04/25 08:51:48;;;;;;;10.43;4.43;;;;;;;9.85;87.20;99902.50;5129796;56;1134793;-78
2022/04/25 08:56:54;;;;;;;6.77;3.60;;;;;;;9.92;87.84;99907.64;5155267;56;1136887;-75
2022/04/25 09:02:00;;;;;;;9.63;4.50;;;;;;;10.12;87.80;99916.48;5096424;57;1134858;-77
2022/04/25 09:07:06;;;;;;;17.03;4.97;;;;;;;10.29;87.34;99913.76;5029288;57;1137003;-73
2022/04/25 09:12:14;;;;;;;8.57;3.97;;;;;;;10.47;87.68;99932.00;5096910;57;1138967;-73
2022/04/25 09:17:20;;;;;;;15.17;5.27;;;;;;;10.62;87.12;99936.45;5088166;57;1136883;-76
2022/04/25 09:22:34;;;;;;;12.47;5.10;;;;;;;10.60;86.45;99935.25;5088713;57;1139017;-69
2022/04/25 09:27:41;;;;;;;10.23;4.90;;;;;;;10.69;86.39;99933.64;5070684;57;1139050;-72
2022/04/25 09:32:50;;;;;;;9.63;4.83;;;;;;;10.89;86.98;99933.54;5133991;56;1139356;-75
2022/04/25 09:37:58;;;;;;;7.53;4.23;;;;;;;11.15;86.43;99934.38;5145153;56;1136992;-72
2022/04/25 09:43:15;;;;;;;10.97;5.53;;;;;;;11.33;85.08;99944.62;5136809;56;1136955;-73
2022/04/25 09:48:23;;;;;;;10.20;3.80;;;;;;;11.26;83.51;99941.70;5169185;56;1139047;-74
2022/04/25 09:53:46;;;;;;;33.50;5.13;;;;;;;11.15;82.79;99947.61;5148388;56;1138998;-73
2022/04/25 09:59:10;;;;;;;6.97;3.80;;;;;;;11.07;82.93;99951.41;5189833;56;1139098;-73
2022/04/25 10:04:32;;;;;;;12.97;5.70;;;;;;;11.02;82.99;99959.75;5227755;56;1136823;-74
2022/04/25 10:09:38;;;;;;;5.93;4.07;;;;;;;10.97;83.04;99955.37;5099717;56;1137151;-73
2022/04/25 10:14:44;;;;;;;7.47;3.27;;;;;;;10.98;82.79;99961.02;5114988;57;1134869;-74
2022/04/25 10:19:52;;;;;;;7.87;4.40;;;;;;;10.78;82.28;99960.11;5142442;57;1134852;-73
2022/04/25 10:24:57;;;;;;;5.37;2.87;;;;;;;10.79;83.35;99964.43;5142287;57;1134799;-73
2022/04/25 10:30:16;;;;;;;7.73;3.20;;;;;;;10.76;82.32;99958.56;5142281;57;1135000;-75
2022/04/25 10:35:35;;;;;;;12.40;4.20;;;;;;;10.66;82.65;99958.53;5155933;57;1134808;-76
2022/04/25 10:45:58;;;;;;;7.13;4.53;;;;;;;10.88;83.04;99969.38;5049540;57;1135112;-75
2022/04/25 10:51:18;;;;;;;8.17;3.50;;;;;;;11.04;83.41;99966.23;5160374;56;1134887;-74
2022/04/25 10:56:26;;;;;;;19.53;5.77;;;;;;;11.16;83.24;99961.17;5213405;56;1136816;-72
2022/04/25 11:01:32;;;;;;;6.77;3.80;;;;;;;11.19;82.07;99967.52;5164539;56;1138919;-74
2022/04/25 11:06:38;;;;;;;6.17;4.50;;;;;;;11.21;82.49;99978.33;5161524;56;1137187;-72
2022/04/25 11:11:52;;;;;;;6.33;3.70;;;;;;;11.15;82.05;99979.38;5077092;57;1136911;-75
2022/04/25 11:17:11;;;;;;;7.60;3.03;;;;;;;11.11;81.95;99984.58;5077034;57;1137182;-74
2022/04/25 11:22:38;;;;;;;11.60;5.33;;;;;;;11.09;81.71;99995.78;5076623;57;1136866;-72
2022/04/25 11:28:05;;;;;;;20.13;11.63;;;;;;;11.24;82.77;100001.88;5057577;57;1138967;-73
2022/04/25 11:33:12;;;;;;;8.03;5.30;;;;;;;11.24;82.77;100001.88;5071480;56;1143392;-74
2022/04/25 11:39:50;;;;;;;3.77;3.20;;;;;;;11.35;81.36;100007.54;5219892;56;1138979;-77
2022/04/25 11:43:26;;;;;;;10.13;4.33;;;;;;;11.20;80.88;100020.33;5215308;56;1138998;-72
2022/04/25 11:48:32;;;;;;;9.27;4.40;;;;;;;11.12;81.05;100024.63;5219575;56;1141151;-77
2022/04/25 11:53:38;;;;;;;12.93;5.87;;;;;;;11.05;81.07;100030.09;5218593;56;1138991;-77
2022/04/25 11:58:44;;;;;;;11.50;6.30;;;;;;;10.96;81.52;100042.33;5175878;56;1141104;-76
2022/04/25 12:03:50;;;;;;;18.97;6.77;;;;;;;10.99;81.81;100046.52;5105681;57;1140575;-74
2022/04/25 12:19:57;;;;;;;8.87;4.97;;;;;;;11.18;81.42;100055.35;5177982;56;1141290;-75
2022/04/25 12:25:21;;;;;;;9.90;5.20;;;;;;;11.15;81.74;100061.42;5197078;55;1137030;-81
2022/04/25 12:30:28;;;;;;;27.13;9.27;;;;;;;11.13;81.22;100068.66;5308326;55;1137021;-78
2022/04/25 12:35:34;;;;;;;12.20;5.17;;;;;;;11.11;81.75;100070.11;5308121;55;1139237;-70
2022/04/25 12:40:58;;;;;;;12.13;6.63;;;;;;;11.12;81.43;100073.11;5308194;55;1138910;-72
2022/04/25 12:46:03;;;;;;;9.07;5.30;;;;;;;11.19;81.69;100074.23;5136924;57;1139461;-72
2022/04/25 12:51:12;;;;;;;22.93;6.50;;;;;;;11.31;81.69;100076.77;5136330;57;1136915;-70
2022/04/25 12:56:30;;;;;;;25.70;13.83;;;;;;;11.42;81.81;100080.66;5130942;57;1139333;-71
2022/04/25 13:01:38;;;;;;;14.27;6.67;;;;;;;11.42;81.05;100078.85;5042556;58;1139016;-75
2022/04/25 13:06:45;;;;;;;15.90;7.07;;;;;;;11.42;81.18;100084.15;5127463;57;1137158;-79
2022/04/25 13:11:50;;;;;;;15.10;6.20;;;;;;;11.47;80.56;100081.91;5091966;57;1141163;-76
2022/04/25 13:16:56;;;;;;;8.70;4.43;;;;;;;11.56;80.77;100085.09;5085928;57;1141167;-76
2022/04/25 13:22:03;;;;;;;13.00;4.83;;;;;;;11.66;80.24;100093.53;5149605;56;1138918;-78
2022/04/25 13:27:09;;;;;;;17.20;10.73;;;;;;;11.52;79.53;100090.30;5215100;56;1141031;-79
2022/04/25 13:32:15;;;;;;;16.90;9.53;;;;;;;11.47;79.92;100095.16;5217361;56;1143175;-74
2022/04/25 13:37:21;;;;;;;16.60;8.80;;;;;;;11.46;80.20;100101.42;5173106;56;1141182;-77
2022/04/25 13:42:28;;;;;;;26.77;20.03;;;;;;;11.49;80.46;100097.19;5175236;56;1141322;-73
2022/04/25 13:47:34;;;;;;;17.73;11.30;;;;;;;11.48;79.70;100106.59;5254524;55;1143112;-78
2022/04/25 13:52:40;;;;;;;19.93;11.17;;;;;;;11.45;80.21;100111.69;5252750;55;1143152;-78
2022/04/25 13:57:46;;;;;;;12.83;6.97;;;;;;;11.43;80.15;100110.14;5133273;56;1143154;-75
2022/04/25 14:03:08;;;;;;;30.50;17.85;;;;;;;11.40;79.99;100114.38;5162836;56;1141032;-76
2022/04/25 14:08:16;;;;;;;8.13;4.90;;;;;;;11.38;80.24;100117.16;5163322;56;1143162;-72
2022/04/25 14:13:23;;;;;;;11.90;4.90;;;;;;;11.43;80.41;100122.06;5162732;56;1139004;-79
2022/04/25 14:18:30;;;;;;;8.77;5.70;;;;;;;11.39;80.43;100124.61;5178038;56;1141482;-77
2022/04/25 14:23:37;;;;;;;17.63;6.57;;;;;;;11.37;80.80;100131.36;5216219;56;1139031;-78
2022/04/25 14:28:44;;;;;;;17.00;8.53;;;;;;;11.37;80.83;100131.36;5215688;56;1141167;-77
2022/04/25 14:33:50;;;;;;;13.97;9.67;;;;;;;11.38;81.07;100140.14;5216125;56;1141096;-74
2022/04/25 14:38:56;;;;;;;13.87;6.93;;;;;;;11.41;80.87;100146.50;5218050;56;1141054;-74
2022/04/25 14:44:02;;;;;;;8.70;4.90;;;;;;;11.34;79.78;100148.83;5217923;56;1141056;-73
2022/04/25 14:49:08;;;;;;;19.80;12.33;;;;;;;11.20;80.16;100143.89;5168008;56;1139019;-77
2022/04/25 14:54:24;;;;;;;10.80;8.53;;;;;;;11.23;80.92;100147.61;5219717;56;1143204;-76
2022/04/25 14:59:31;;;;;;;8.60;5.50;;;;;;;11.36;81.02;100149.55;5219845;56;1141117;-74
2022/04/25 15:04:37;;;;;;;15.50;7.17;;;;;;;11.40;80.44;100156.26;5217642;56;1139036;-74
2022/04/25 15:09:44;;;;;;;11.27;5.87;;;;;;;11.36;80.08;100154.00;5217568;56;1141098;-77
2022/04/25 15:14:50;;;;;;;19.40;10.73;;;;;;;11.26;80.36;100156.61;5219740;56;1141058;-77
2022/04/25 15:19:56;;;;;;;12.00;8.63;;;;;;;11.22;80.08;100162.65;5219652;56;1143225;-74
2022/04/25 15:25:02;;;;;;;24.33;16.27;;;;;;;11.19;80.11;100166.88;5217199;56;1141168;-76
2022/04/25 15:30:08;;;;;;;14.37;7.77;;;;;;;11.10;80.35;100170.81;5231033;55;1143190;-71
2022/04/25 15:35:14;;;;;;;12.17;5.70;;;;;;;11.10;80.79;100176.10;5229085;56;1141111;-77
2022/04/25 15:40:20;;;;;;;15.27;7.17;;;;;;;11.14;80.36;100182.34;5218536;56;1141155;-76
2022/04/25 15:45:26;;;;;;;26.40;7.87;;;;;;;11.14;80.71;100186.79;5218519;56;1141087;-78
2022/04/25 15:50:31;;;;;;;16.00;6.67;;;;;;;11.16;80.89;100191.44;5182666;56;1141054;-74
2022/04/25 16:01:01;;;;;;;19.83;8.00;;;;;;;11.13;80.65;100189.08;5202993;56;1139075;-72
2022/04/25 16:06:07;;;;;;;18.63;7.30;;;;;;;11.11;80.47;100199.80;5215070;56;1139011;-78
2022/04/25 16:11:12;;;;;;;9.63;5.23;;;;;;;11.10;80.63;100203.41;5217573;56;1139025;-76
2022/04/25 16:16:18;;;;;;;24.53;9.33;;;;;;;11.13;80.68;100204.96;5218529;56;1136893;-76
2022/04/25 16:21:24;;;;;;;29.07;11.53;;;;;;;11.08;80.63;100204.50;5218458;56;1139286;-75
2022/04/25 16:26:30;;;;;;;25.73;10.70;;;;;;;11.09;80.76;100204.38;5218525;56;1141097;-75
2022/04/25 16:31:36;;;;;;;16.27;7.10;;;;;;;11.03;80.50;100206.69;5218613;56;1140972;-74
2022/04/25 16:36:44;;;;;;;23.83;8.80;;;;;;;10.92;80.84;100222.15;5218363;56;1139082;-77
2022/04/25 16:41:53;;;;;;;16.62;7.10;;;;;;;10.90;81.23;100217.47;5218290;56;1139234;-78
2022/04/25 16:46:59;;;;;;;11.27;6.23;;;;;;;10.85;81.27;100219.64;5186208;56;1138973;-75
2022/04/25 16:52:05;;;;;;;7.73;5.50;;;;;;;10.84;81.63;100227.26;5201176;56;1139485;-75
2022/04/25 16:57:11;;;;;;;16.63;7.37;;;;;;;10.80;81.77;100233.77;5218158;56;1137038;-71
2022/04/25 17:02:17;;;;;;;27.00;12.83;;;;;;;10.71;81.57;100240.63;5217502;56;1138904;-76
2022/04/25 17:07:22;;;;;;;26.83;11.03;;;;;;;10.57;82.05;100254.16;5217985;56;1140554;-74
2022/04/25 17:12:28;;;;;;;39.20;25.20;;;;;;;10.56;82.76;100261.73;5171476;56;1139151;-74
2022/04/25 17:17:34;;;;;;;30.90;12.80;;;;;;;10.62;82.89;100262.56;5217377;56;1139331;-74
2022/04/25 17:22:41;;;;;;;18.92;11.63;;;;;;;10.60;82.83;100263.64;5235153;55;1143110;-76
2022/04/25 17:27:47;;;;;;;14.17;8.60;;;;;;;10.60;83.12;100262.33;5000857;56;1143197;-78
